CYYY

Mont Joli Airport

Mont-Joli, Quebec, Canada
TAF CYYY 260138Z 2602/2614 16010KT P6SM SCT050 OVC100 FM260400 16010KT P6SM BKN030 TEMPO 2604/2611 4SM -RA BR OVC020 FM261100 12012KT 3SM -RA BR OVC015 TEMPO 2611/2614 6SM -RA BR OVC025 RMK NXT FCST BY 260800Z
Issued Valid From Valid To
Apr-26 @ 01:38 UTC
(2 hours ago)
Apr-26 @ 02:00 UTC
(2 hours ago)
Apr-26 @ 14:00 UTC
(in 10 hours)
Apr-26 @ 02:00 to Apr-26 @ 04:00
TAF CYYY 260138Z 2602/2614 16010KT P6SM SCT050 OVC100
Wind Visibility Clouds
160° at 10 knots Greater than 6 miles
  • Scattered at 5,000' AGL
  • Overcast at 10,000' AGL
From Apr-26 @ 04:00 to Apr-26 @ 11:00
FM260400 16010KT P6SM BKN030
Wind Visibility Clouds
160° at 10 knots Greater than 6 miles
  • Broken at 3,000' AGL
Temporary Apr-26 @ 04:00 to Apr-26 @ 11:00
TEMPO 2604/2611 4SM -RA BR OVC020
Visibility Clouds Conditions
4 miles
  • Overcast at 2,000' AGL
  • Light Rain
  • Mist
From Apr-26 @ 11:00 to Apr-26 @ 14:00
FM261100 12012KT 3SM -RA BR OVC015
Wind Visibility Clouds Conditions
120° at 12 knots 3 miles
  • Overcast at 1,500' AGL
  • Light Rain
  • Mist
Temporary Apr-26 @ 11:00 to Apr-26 @ 14:00
TEMPO 2611/2614 6SM -RA BR OVC025 RMK NXT FCST BY 260800Z
Visibility Clouds Conditions
6 miles
  • Overcast at 2,500' AGL
  • Light Rain
  • Mist
TAF CYYY 260138Z 2602/2614 16010KT P6SM SCT050 OVC100 FM260400 16010KT P6SM BKN030 TEMPO 2604/2611 4SM -RA BR OVC020 FM261100 12012KT 3SM -RA BR OVC015 TEMPO 2611/2614 6SM -RA BR OVC025 RMK NXT FCST BY 260800Z
Issued Apr-26 @ 01:38 UTC
(2 hours ago)
Valid From Apr-26 @ 02:00 UTC
(2 hours ago)
Valid To Apr-26 @ 14:00 UTC
(in 10 hours)
Apr-26 @ 02:00 - Apr-26 @ 04:00
Wind Visibility
160° at 10 knots Greater than 6 miles
Clouds
  • Scattered at 5,000' AGL
  • Overcast at 10,000' AGL
From Apr-26 @ 04:00 - Apr-26 @ 11:00
Wind Visibility
160° at 10 knots Greater than 6 miles
Clouds
  • Broken at 3,000' AGL
Temporary Apr-26 @ 04:00 - Apr-26 @ 11:00
Clouds
  • Overcast at 2,000' AGL
Conditions
  • Light Rain
  • Mist
From Apr-26 @ 11:00 - Apr-26 @ 14:00
Wind Visibility
120° at 12 knots 3 miles
Clouds
  • Overcast at 1,500' AGL
Conditions
  • Light Rain
  • Mist
Temporary Apr-26 @ 11:00 - Apr-26 @ 14:00
Clouds
  • Overcast at 2,500' AGL
Conditions
  • Light Rain
  • Mist